createdAt,value
2018-05-16T00:00:39.256Z,15.14
2018-05-16T00:03:06.809Z,15.20
2018-05-16T00:05:34.410Z,15.17
2018-05-16T00:08:02.054Z,15.14
2018-05-16T00:10:29.569Z,15.05
2018-05-16T00:12:57.134Z,15.08
2018-05-16T00:15:24.720Z,15.00
2018-05-16T00:17:52.303Z,15.03
2018-05-16T00:20:19.881Z,14.99
2018-05-16T00:22:47.450Z,15.02
2018-05-16T00:25:15.032Z,15.00
2018-05-16T00:27:42.582Z,14.94
2018-05-16T00:30:10.133Z,14.93
2018-05-16T00:32:37.703Z,14.90
2018-05-16T00:35:05.359Z,14.91
2018-05-16T00:37:32.904Z,14.89
2018-05-16T00:40:00.520Z,14.95
2018-05-16T00:42:28.069Z,14.93
2018-05-16T00:44:55.652Z,15.00
2018-05-16T00:47:23.216Z,15.02
2018-05-16T00:49:50.835Z,14.98
2018-05-16T00:52:18.413Z,14.83
2018-05-16T00:54:46.004Z,14.81
2018-05-16T00:57:13.547Z,14.99
2018-05-16T00:59:41.118Z,15.07
2018-05-16T01:02:08.691Z,15.00
2018-05-16T01:04:36.266Z,15.02
2018-05-16T01:07:03.837Z,14.93
2018-05-16T01:09:31.386Z,14.95
2018-05-16T01:11:59.660Z,14.96
2018-05-16T01:14:27.229Z,14.98
2018-05-16T01:16:54.850Z,15.08
2018-05-16T01:19:22.480Z,15.13
2018-05-16T01:21:50.066Z,15.05
2018-05-16T01:24:17.621Z,15.13
2018-05-16T01:26:45.255Z,15.25
2018-05-16T01:29:12.802Z,15.13
2018-05-16T01:31:40.364Z,15.06
2018-05-16T01:34:07.959Z,15.08
2018-05-16T01:36:35.503Z,15.13
2018-05-16T01:39:03.136Z,15.11
2018-05-16T01:41:30.717Z,14.95
2018-05-16T01:43:58.282Z,15.05
2018-05-16T01:46:25.817Z,15.06
2018-05-16T01:49:05.301Z,15.03
2018-05-16T01:51:32.868Z,15.04
2018-05-16T01:54:00.431Z,14.92
2018-05-16T01:56:28.007Z,14.87
2018-05-16T01:58:55.567Z,14.77
2018-05-16T02:01:23.128Z,14.59
2018-05-16T02:03:50.687Z,14.62
2018-05-16T02:06:18.265Z,14.70
2018-05-16T02:08:45.842Z,14.67
2018-05-16T02:11:13.369Z,14.56
2018-05-16T02:13:41.005Z,14.56
2018-05-16T02:16:08.625Z,14.39
2018-05-16T02:18:36.194Z,14.28
2018-05-16T02:21:03.760Z,14.19
2018-05-16T02:23:31.292Z,14.28
2018-05-16T02:25:58.860Z,14.20
2018-05-16T02:28:26.499Z,14.27
2018-05-16T02:30:54.036Z,14.22
2018-05-16T02:33:21.613Z,14.39
2018-05-16T02:35:49.207Z,14.49
2018-05-16T02:38:16.892Z,14.14
2018-05-16T02:40:44.476Z,14.30
2018-05-16T02:43:12.064Z,14.45
2018-05-16T02:45:39.652Z,14.04
2018-05-16T02:48:07.211Z,14.20
2018-05-16T02:50:34.765Z,14.22
2018-05-16T02:53:02.331Z,14.16
2018-05-16T02:55:29.908Z,14.22
2018-05-16T02:57:57.508Z,14.23
2018-05-16T03:00:25.060Z,14.35
2018-05-16T03:02:52.631Z,14.46
2018-05-16T03:05:20.178Z,14.41
2018-05-16T03:07:47.744Z,14.47
2018-05-16T03:10:15.384Z,14.49
2018-05-16T03:12:42.954Z,14.34
2018-05-16T03:15:10.496Z,14.39
2018-05-16T03:17:38.113Z,14.41
2018-05-16T03:20:05.658Z,14.25
2018-05-16T03:22:33.212Z,14.27
2018-05-16T03:25:00.855Z,14.36
2018-05-16T03:27:28.423Z,14.23
2018-05-16T03:29:55.990Z,14.31
2018-05-16T03:32:23.530Z,14.36
2018-05-16T03:34:51.098Z,14.31
2018-05-16T03:37:18.642Z,14.45
2018-05-16T03:39:46.238Z,14.56
2018-05-16T03:42:13.798Z,14.41
2018-05-16T03:44:41.374Z,14.46
2018-05-16T03:47:08.923Z,14.21
2018-05-16T03:49:36.473Z,14.18
2018-05-16T03:52:04.086Z,14.13
2018-05-16T03:54:31.714Z,14.03
2018-05-16T03:56:59.267Z,13.99
2018-05-16T03:59:38.633Z,14.13
2018-05-16T04:02:18.103Z,14.24
2018-05-16T04:04:45.701Z,14.34
2018-05-16T04:07:13.255Z,14.24
2018-05-16T04:09:40.791Z,14.33
2018-05-16T04:12:08.401Z,14.32
2018-05-16T04:14:35.979Z,14.29
2018-05-16T04:17:03.590Z,14.48
2018-05-16T04:19:31.138Z,14.41
2018-05-16T04:21:58.720Z,14.33
2018-05-16T04:24:26.272Z,14.26
2018-05-16T04:26:53.879Z,14.34
2018-05-16T04:29:21.471Z,14.38
2018-05-16T04:31:49.088Z,14.31
2018-05-16T04:34:16.645Z,14.12
2018-05-16T04:36:44.253Z,14.13
2018-05-16T04:39:11.791Z,14.18
2018-05-16T04:41:39.390Z,14.21
2018-05-16T04:44:06.972Z,14.13
2018-05-16T04:46:34.539Z,14.07
2018-05-16T04:49:02.123Z,14.00
2018-05-16T04:51:29.686Z,13.84
2018-05-16T04:53:57.268Z,14.00
2018-05-16T04:56:24.796Z,14.15
2018-05-16T04:58:52.383Z,14.19
2018-05-16T05:01:19.967Z,14.05
2018-05-16T05:03:47.481Z,14.07
2018-05-16T05:06:15.018Z,14.04
2018-05-16T05:08:42.652Z,14.04
2018-05-16T05:11:10.262Z,14.16
2018-05-16T05:13:37.851Z,14.40
2018-05-16T05:16:05.368Z,14.36
2018-05-16T05:18:33.032Z,14.23
2018-05-16T05:21:00.499Z,14.31
2018-05-16T05:23:28.093Z,14.50
2018-05-16T05:25:55.686Z,14.65
2018-05-16T05:28:23.253Z,14.49
2018-05-16T05:30:50.845Z,14.56
2018-05-16T05:33:18.411Z,14.34
2018-05-16T05:35:45.963Z,14.51
2018-05-16T05:38:13.506Z,14.28
2018-05-16T05:40:41.026Z,14.20
2018-05-16T05:43:08.583Z,14.38
2018-05-16T05:45:36.228Z,14.41
2018-05-16T05:48:03.824Z,14.26
2018-05-16T05:50:31.503Z,14.52
2018-05-16T05:52:59.114Z,14.37
2018-05-16T05:55:26.727Z,14.36
2018-05-16T05:57:54.310Z,14.61
2018-05-16T06:00:21.872Z,14.65
2018-05-16T06:02:49.420Z,14.73
2018-05-16T06:05:16.956Z,14.76
2018-05-16T06:07:44.588Z,15.08
2018-05-16T06:10:12.144Z,15.38
2018-05-16T06:12:39.843Z,15.69
2018-05-16T06:15:08.998Z,15.71
2018-05-16T06:17:36.650Z,15.96
2018-05-16T06:20:04.284Z,16.12
2018-05-16T06:22:31.852Z,15.88
2018-05-16T06:24:59.500Z,15.76
2018-05-16T06:27:27.413Z,15.75
2018-05-16T06:29:55.183Z,16.01
2018-05-16T06:32:22.715Z,15.71
2018-05-16T06:34:50.915Z,16.08
2018-05-16T06:37:18.627Z,16.09
2018-05-16T06:39:46.300Z,16.11
2018-05-16T06:42:13.869Z,16.24
2018-05-16T06:44:41.400Z,16.15
2018-05-16T06:47:09.011Z,16.62
2018-05-16T06:49:36.550Z,16.67
2018-05-16T06:52:04.104Z,16.68
2018-05-16T06:54:31.729Z,17.01
2018-05-16T06:56:59.285Z,16.78
2018-05-16T06:59:26.799Z,16.88
2018-05-16T07:01:54.431Z,16.84
2018-05-16T07:04:22.134Z,16.94
2018-05-16T07:06:49.695Z,16.68
2018-05-16T07:09:17.302Z,17.19
2018-05-16T07:11:44.876Z,17.03
2018-05-16T07:14:12.490Z,17.12
2018-05-16T07:16:40.077Z,17.56
2018-05-16T07:19:07.635Z,16.92
2018-05-16T07:21:35.245Z,16.59
2018-05-16T07:24:03.348Z,16.46
2018-05-16T07:26:30.924Z,15.77
2018-05-16T07:28:58.637Z,15.93
2018-05-16T07:31:26.216Z,15.70
2018-05-16T07:33:53.778Z,15.65
2018-05-16T07:36:21.381Z,15.94
2018-05-16T07:38:48.942Z,16.03
2018-05-16T07:41:16.629Z,15.81
2018-05-16T07:43:44.115Z,15.63
2018-05-16T07:46:11.658Z,14.96
2018-05-16T07:48:39.336Z,14.81
2018-05-16T07:51:06.935Z,14.70
2018-05-16T07:53:34.507Z,14.62
2018-05-16T07:56:02.214Z,14.57
2018-05-16T07:58:29.686Z,14.48
2018-05-16T08:00:57.289Z,14.43
2018-05-16T08:03:24.886Z,14.39
2018-05-16T08:05:52.483Z,14.05
2018-05-16T08:08:20.093Z,14.33
2018-05-16T08:10:47.657Z,14.25
2018-05-16T08:13:15.212Z,14.42
2018-05-16T08:15:42.793Z,14.52
2018-05-16T08:18:10.356Z,14.63
2018-05-16T08:20:37.929Z,14.94
2018-05-16T08:23:05.499Z,15.02
2018-05-16T08:25:33.105Z,15.55
2018-05-16T08:28:00.641Z,15.66
2018-05-16T08:30:28.441Z,15.74
2018-05-16T08:32:56.943Z,16.25
2018-05-16T08:35:24.575Z,16.40
2018-05-16T08:37:52.143Z,16.19
2018-05-16T08:40:19.697Z,16.36
2018-05-16T08:42:47.250Z,16.81
2018-05-16T08:45:14.867Z,16.47
2018-05-16T08:47:42.484Z,16.93
2018-05-16T08:50:10.011Z,17.07
2018-05-16T08:52:37.564Z,17.16
2018-05-16T08:55:05.106Z,17.44
2018-05-16T08:57:32.810Z,16.76
2018-05-16T09:00:00.537Z,17.16
2018-05-16T09:02:28.380Z,17.21
2018-05-16T09:04:55.935Z,17.28
2018-05-16T09:07:23.509Z,17.68
2018-05-16T09:09:51.136Z,17.86
2018-05-16T09:12:18.678Z,17.41
2018-05-16T09:14:46.279Z,17.66
2018-05-16T09:17:13.912Z,17.83
2018-05-16T09:19:41.457Z,17.93
2018-05-16T09:22:08.983Z,18.00
2018-05-16T09:24:36.575Z,18.03
2018-05-16T09:27:04.243Z,18.15
2018-05-16T09:29:32.264Z,18.43
2018-05-16T09:31:59.853Z,18.79
2018-05-16T09:34:27.445Z,18.83
2018-05-16T09:36:54.996Z,18.73
2018-05-16T09:39:22.598Z,18.93
2018-05-16T09:41:50.155Z,18.79
2018-05-16T09:44:17.717Z,19.04
2018-05-16T09:46:45.269Z,18.54
2018-05-16T09:49:12.802Z,18.41
2018-05-16T09:51:40.382Z,18.10
2018-05-16T09:54:08.021Z,18.49
2018-05-16T09:56:35.796Z,18.63
2018-05-16T09:59:03.346Z,18.20
2018-05-16T10:01:31.054Z,18.80
2018-05-16T10:03:58.670Z,19.39
2018-05-16T10:06:26.444Z,19.66
2018-05-16T10:08:54.073Z,19.24
2018-05-16T10:11:21.644Z,19.22
2018-05-16T10:13:49.238Z,18.78
2018-05-16T10:16:16.868Z,18.66
2018-05-16T10:18:44.574Z,18.93
2018-05-16T10:21:12.154Z,18.96
2018-05-16T10:23:39.765Z,19.08
2018-05-16T10:26:07.352Z,19.00
2018-05-16T10:28:34.879Z,18.49
2018-05-16T10:31:02.473Z,18.77
2018-05-16T10:33:30.073Z,18.56
2018-05-16T10:35:57.788Z,18.30
2018-05-16T10:38:25.460Z,17.92
2018-05-16T10:40:53.052Z,17.95
2018-05-16T10:43:20.590Z,17.78
2018-05-16T10:45:48.159Z,17.40
2018-05-16T10:48:15.747Z,17.59
2018-05-16T10:50:43.298Z,17.49
2018-05-16T10:53:10.899Z,17.33
2018-05-16T10:55:38.504Z,17.31
2018-05-16T10:58:06.111Z,17.17
2018-05-16T11:00:33.685Z,17.10
2018-05-16T11:03:01.251Z,16.79
2018-05-16T11:05:28.840Z,16.91
2018-05-16T11:07:56.426Z,16.93
2018-05-16T11:10:24.033Z,16.88
2018-05-16T11:12:51.604Z,16.91
2018-05-16T11:15:19.167Z,17.07
2018-05-16T11:17:46.723Z,17.36
2018-05-16T11:20:14.332Z,17.75
2018-05-16T11:22:41.900Z,18.47
2018-05-16T11:25:09.496Z,19.28
2018-05-16T11:27:37.127Z,19.59
2018-05-16T11:30:04.693Z,20.81
2018-05-16T11:32:32.267Z,21.96
2018-05-16T11:34:59.876Z,22.60
2018-05-16T11:37:27.414Z,22.47
2018-05-16T11:39:54.982Z,22.51
2018-05-16T11:42:22.570Z,22.90
2018-05-16T11:44:50.117Z,22.80
2018-05-16T11:47:17.687Z,23.12
2018-05-16T11:49:45.309Z,23.12
2018-05-16T11:52:12.845Z,23.22
2018-05-16T11:54:40.395Z,23.68
2018-05-16T11:57:07.959Z,22.93
2018-05-16T11:59:35.649Z,21.83
2018-05-16T12:02:03.678Z,20.44
2018-05-16T12:04:37.560Z,19.70
2018-05-16T12:07:06.457Z,19.17
2018-05-16T12:09:39.566Z,18.41
2018-05-16T12:12:07.310Z,17.44
2018-05-16T12:14:35.674Z,17.56
2018-05-16T12:17:03.377Z,18.35
2018-05-16T12:19:30.920Z,18.80
2018-05-16T12:21:58.554Z,19.68
2018-05-16T12:24:26.214Z,19.92
2018-05-16T12:26:53.767Z,20.40
2018-05-16T12:29:21.506Z,21.04
2018-05-16T12:31:50.653Z,22.16
2018-05-16T12:34:21.078Z,25.81
2018-05-16T12:36:48.796Z,29.01
2018-05-16T12:39:16.473Z,26.19
2018-05-16T12:41:44.164Z,25.08
2018-05-16T12:44:13.025Z,24.45
2018-05-16T12:46:40.767Z,23.17
2018-05-16T12:49:08.305Z,22.65
2018-05-16T12:51:35.908Z,22.54
2018-05-16T12:54:03.553Z,22.44
2018-05-16T12:56:31.294Z,22.41
2018-05-16T12:58:58.809Z,23.11
2018-05-16T13:01:26.393Z,25.02
2018-05-16T13:03:53.990Z,26.09
2018-05-16T13:06:21.746Z,27.53
2018-05-16T13:08:49.385Z,29.29
2018-05-16T13:11:17.012Z,31.02
2018-05-16T13:13:44.682Z,28.55
2018-05-16T13:16:12.224Z,27.19
2018-05-16T13:18:39.735Z,28.74
2018-05-16T13:21:07.301Z,29.17
2018-05-16T13:23:34.840Z,31.00
2018-05-16T13:26:02.393Z,28.89
2018-05-16T13:28:30.049Z,28.78
2018-05-16T13:30:57.591Z,28.20
2018-05-16T13:33:25.143Z,27.57
2018-05-16T13:35:52.700Z,26.91
2018-05-16T13:38:20.285Z,27.42
2018-05-16T13:40:47.846Z,27.11
2018-05-16T13:43:15.379Z,27.60
2018-05-16T13:45:43.014Z,27.50
2018-05-16T13:48:10.553Z,27.56
2018-05-16T13:50:38.196Z,26.73
2018-05-16T13:53:05.770Z,29.30
2018-05-16T13:55:33.375Z,30.64
2018-05-16T13:58:00.943Z,32.76
2018-05-16T14:09:28.682Z,28.73
2018-05-16T14:23:19.930Z,24.08
2018-05-16T14:25:47.410Z,22.93
2018-05-16T14:28:14.931Z,22.15
2018-05-16T14:30:42.411Z,20.83
2018-05-16T14:33:09.950Z,20.59
2018-05-16T14:35:37.408Z,19.99
2018-05-16T14:38:04.892Z,19.55
2018-05-16T14:40:32.375Z,19.08
2018-05-16T14:42:59.998Z,18.80
2018-05-16T14:45:27.365Z,17.51
2018-05-16T14:47:54.830Z,16.69
2018-05-16T14:50:22.299Z,15.76
2018-05-16T14:52:49.801Z,15.78
2018-05-16T14:55:17.278Z,15.64
2018-05-16T14:57:44.740Z,15.61
2018-05-16T15:00:12.230Z,15.77
2018-05-16T15:02:39.700Z,15.59
2018-05-16T15:05:07.166Z,15.55
2018-05-16T15:07:34.656Z,15.65
2018-05-16T15:10:02.117Z,15.62
2018-05-16T15:12:29.613Z,15.68
2018-05-16T15:17:47.522Z,16.12
2018-05-16T15:20:15.055Z,16.31
2018-05-16T15:22:44.167Z,16.50
2018-05-16T15:25:11.864Z,16.76
2018-05-16T15:27:39.320Z,16.78
2018-05-16T15:30:06.862Z,17.01
2018-05-16T15:32:34.323Z,17.12
2018-05-16T15:57:52.654Z,19.63
2018-05-16T16:00:20.123Z,19.81
2018-05-16T16:02:47.591Z,19.46
2018-05-16T16:05:15.165Z,19.07
2018-05-16T16:07:42.653Z,18.36
2018-05-16T16:10:10.120Z,18.28
2018-05-16T16:12:37.614Z,17.88
2018-05-16T16:15:05.118Z,17.78
2018-05-16T16:17:33.509Z,17.67
2018-05-16T16:20:01.473Z,17.65
2018-05-16T17:08:11.617Z,20.83
2018-05-16T17:10:39.079Z,20.11
2018-05-16T17:13:06.540Z,19.59
2018-05-16T17:15:34.009Z,18.94
2018-05-16T17:18:01.495Z,18.42
2018-05-16T17:26:10.142Z,17.96
2018-05-16T17:28:37.609Z,17.76
2018-05-16T17:48:04.325Z,17.19
2018-05-16T17:50:31.778Z,17.13
2018-05-16T18:04:22.407Z,16.95
2018-05-16T18:06:49.864Z,16.74
2018-05-16T18:15:12.800Z,16.48
2018-05-16T18:17:40.285Z,16.46
2018-05-16T18:20:07.751Z,16.41
2018-05-16T18:22:35.221Z,16.52
2018-05-16T18:25:02.693Z,16.40
2018-05-16T18:27:30.213Z,16.20
2018-05-16T18:30:14.384Z,16.29
2018-05-16T18:32:41.857Z,16.25
2018-05-16T18:35:09.345Z,16.33
2018-05-16T18:37:36.823Z,16.27
2018-05-16T18:48:37.076Z,16.04
2018-05-16T18:51:04.560Z,15.94
2018-05-16T18:53:32.032Z,15.89
2018-05-16T18:55:59.532Z,15.81
2018-05-16T18:58:27.019Z,15.83
2018-05-16T19:00:54.495Z,15.80
2018-05-16T19:03:21.980Z,15.71
2018-05-16T19:05:49.496Z,15.54
2018-05-16T19:08:16.988Z,15.51
2018-05-16T19:10:44.483Z,15.41
2018-05-16T19:13:11.968Z,15.38
2018-05-16T19:15:39.491Z,15.32
2018-05-16T19:18:07.016Z,15.09
2018-05-16T19:26:15.746Z,14.71
2018-05-16T19:28:43.249Z,14.70
2018-05-16T19:31:10.737Z,14.64
2018-05-16T19:33:38.224Z,14.53
2018-05-16T19:36:05.702Z,14.51
2018-05-16T19:38:33.227Z,14.41
2018-05-16T19:41:00.728Z,14.43
2018-05-16T19:43:28.193Z,14.58
2018-05-16T19:45:55.684Z,14.65
2018-05-16T19:48:23.215Z,14.71
2018-05-16T19:50:50.747Z,14.75
2018-05-16T19:53:18.241Z,14.65
2018-05-16T19:55:45.742Z,14.76
2018-05-16T19:58:13.231Z,14.65
2018-05-16T20:00:40.737Z,14.58
2018-05-16T20:03:08.228Z,14.49
2018-05-16T20:05:35.789Z,14.32
2018-05-16T20:08:03.294Z,14.20
2018-05-16T20:10:30.845Z,14.01
2018-05-16T20:12:58.356Z,13.99
2018-05-16T20:15:25.857Z,13.93
2018-05-16T20:17:53.355Z,13.83
2018-05-16T20:20:20.814Z,13.73
2018-05-16T20:22:48.303Z,13.59
2018-05-16T20:25:15.804Z,13.54
2018-05-16T20:27:43.280Z,13.59
2018-05-16T20:30:10.743Z,13.58
2018-05-16T20:32:38.219Z,13.60
2018-05-16T20:35:05.682Z,13.61
2018-05-16T20:37:33.161Z,13.61
2018-05-16T20:40:00.739Z,13.68
2018-05-16T20:42:28.182Z,13.72
2018-05-16T20:44:55.674Z,13.76
2018-05-16T20:47:23.146Z,13.74
2018-05-16T20:49:50.711Z,13.82
2018-05-16T20:52:18.185Z,13.85
2018-05-16T20:54:45.652Z,13.98
2018-05-16T20:57:13.147Z,14.06
2018-05-16T20:59:40.626Z,14.05
2018-05-16T21:02:08.112Z,14.10
2018-05-16T21:04:38.110Z,14.11
2018-05-16T22:04:17.019Z,14.12
2018-05-16T22:06:44.485Z,14.06
2018-05-16T22:09:11.968Z,14.03
2018-05-16T22:11:40.437Z,13.95
2018-05-16T22:14:26.491Z,13.99
2018-05-16T22:16:53.963Z,14.03
2018-05-16T22:19:21.433Z,13.98
2018-05-16T22:21:48.908Z,14.03
2018-05-16T22:24:17.151Z,14.12
2018-05-16T22:26:44.640Z,14.11
2018-05-16T22:32:08.762Z,14.18
2018-05-16T22:34:41.853Z,14.24
2018-05-16T22:37:14.934Z,14.10
2018-05-16T22:39:48.078Z,14.08
2018-05-16T22:42:21.206Z,14.04
2018-05-16T22:44:52.669Z,14.09
2018-05-16T22:47:20.160Z,13.88
2018-05-16T22:49:47.651Z,13.87
2018-05-16T22:52:15.209Z,13.88
2018-05-16T22:54:42.708Z,13.86
2018-05-16T22:57:10.201Z,13.85
2018-05-16T22:59:37.723Z,13.87
2018-05-16T23:02:05.219Z,13.90
2018-05-16T23:04:32.693Z,14.00
2018-05-16T23:07:11.197Z,14.08
2018-05-16T23:09:38.661Z,14.17
2018-05-16T23:20:39.084Z,14.16
2018-05-16T23:23:06.556Z,14.10
2018-05-16T23:25:34.067Z,14.20
2018-05-16T23:28:01.640Z,14.24
2018-05-16T23:30:29.192Z,14.25
2018-05-16T23:32:56.663Z,14.18
2018-05-16T23:35:24.131Z,14.17
2018-05-16T23:57:59.126Z,13.86
